Time,TemperatureF,DewpointF,PressureIn,WindDirection,WindDirectionDegrees,WindSpeedMPH,WindSpeedGustMPH,Humidity,HourlyPrecipIn,Conditions,Clouds,dailyrainin,SoftwareType,DateUTC
2013-02-06 00:06:00,20.6,18.0,30.10,West,281,0.0,1.0,91,0.00,,,0.00,weatherlink.com 1.10,2013-02-06 06:06:00,
2013-02-06 00:22:00,20.7,19.0,30.11,West,280,0.0,1.0,93,0.00,,,0.00,weatherlink.com 1.10,2013-02-06 06:22:00,
2013-02-06 00:37:00,19.4,18.0,30.11,South,173,0.0,1.0,92,0.00,,,0.00,weatherlink.com 1.10,2013-02-06 06:37:00,
2013-02-06 00:52:00,17.8,16.0,30.11,South,173,0.0,1.0,93,0.00,,,0.00,weatherlink.com 1.10,2013-02-06 06:52:00,
2013-02-06 01:07:00,16.8,16.0,30.11,South,174,0.0,1.0,95,0.00,,,0.00,weatherlink.com 1.10,2013-02-06 07:07:00,
2013-02-06 01:22:00,16.0,15.0,30.12,South,173,0.0,0.0,96,0.00,,,0.00,weatherlink.com 1.10,2013-02-06 07:22:00,
2013-02-06 01:37:00,16.0,15.0,30.12,South,173,0.0,0.0,96,0.00,,,0.00,weatherlink.com 1.10,2013-02-06 07:37:00,
2013-02-06 01:52:00,15.2,14.0,30.13,South,173,0.0,0.0,96,0.00,,,0.00,weatherlink.com 1.10,2013-02-06 07:52:00,
2013-02-06 02:07:00,14.6,14.0,30.13,South,173,0.0,1.0,96,0.00,,,0.00,weatherlink.com 1.10,2013-02-06 08:07:00,
2013-02-06 02:22:00,14.2,13.0,30.13,South,173,0.0,0.0,96,0.00,,,0.00,weatherlink.com 1.10,2013-02-06 08:22:00,
2013-02-06 02:37:00,13.6,13.0,30.12,ENE,70,0.0,2.0,97,0.00,,,0.00,weatherlink.com 1.10,2013-02-06 08:37:00,
2013-02-06 02:52:00,13.3,12.0,30.11,East,96,0.0,1.0,96,0.00,,,0.00,weatherlink.com 1.10,2013-02-06 08:52:00,
2013-02-06 03:07:00,13.1,12.0,30.11,East,82,0.0,2.0,97,0.00,,,0.00,weatherlink.com 1.10,2013-02-06 09:07:00,
2013-02-06 03:22:00,13.1,12.0,30.12,East,100,0.0,1.0,97,0.00,,,0.00,weatherlink.com 1.10,2013-02-06 09:22:00,
2013-02-06 03:37:00,12.3,12.0,30.12,East,100,0.0,1.0,97,0.00,,,0.00,weatherlink.com 1.10,2013-02-06 09:37:00,
2013-02-06 03:52:00,10.9,10.0,30.13,East,100,0.0,1.0,96,0.00,,,0.00,weatherlink.com 1.10,2013-02-06 09:52:00,
2013-02-06 04:07:00,10.4,10.0,30.13,East,101,0.0,0.0,96,0.00,,,0.00,weatherlink.com 1.10,2013-02-06 10:07:00,
2013-02-06 04:22:00,9.8,9.0,30.14,East,101,0.0,0.0,96,0.00,,,0.00,weatherlink.com 1.10,2013-02-06 10:22:00,
2013-02-06 04:38:00,9.3,8.0,30.14,East,86,0.0,1.0,96,0.00,,,0.00,weatherlink.com 1.10,2013-02-06 10:38:00,
2013-02-06 04:52:00,9.2,8.0,30.14,ENE,70,0.0,1.0,96,0.00,,,0.00,weatherlink.com 1.10,2013-02-06 10:52:00,
2013-02-06 05:07:00,8.8,8.0,30.14,East,80,0.0,1.0,96,0.00,,,0.00,weatherlink.com 1.10,2013-02-06 11:07:00,
2013-02-06 05:22:00,7.9,7.0,30.13,ENE,77,0.0,1.0,95,0.00,,,0.00,weatherlink.com 1.10,2013-02-06 11:22:00,
2013-02-06 05:38:00,7.7,7.0,30.13,ENE,77,0.0,0.0,95,0.00,,,0.00,weatherlink.com 1.10,2013-02-06 11:38:00,
2013-02-06 05:52:00,7.4,6.0,30.14,ENE,78,0.0,0.0,95,0.00,,,0.00,weatherlink.com 1.10,2013-02-06 11:52:00,
2013-02-06 06:07:00,7.7,7.0,30.14,ENE,77,0.0,0.0,97,0.00,,,0.00,weatherlink.com 1.10,2013-02-06 12:07:00,
2013-02-06 06:22:00,6.5,5.0,30.15,ENE,78,0.0,1.0,94,0.00,,,0.00,weatherlink.com 1.10,2013-02-06 12:22:00,
2013-02-06 06:38:00,6.1,5.0,30.15,SW,219,0.0,1.0,95,0.00,,,0.00,weatherlink.com 1.10,2013-02-06 12:38:00,
2013-02-06 06:53:00,6.6,6.0,30.16,North,360,0.0,1.0,95,0.00,,,0.00,weatherlink.com 1.10,2013-02-06 12:53:00,
2013-02-06 07:08:00,7.7,7.0,30.17,East,80,0.0,1.0,97,0.00,,,0.00,weatherlink.com 1.10,2013-02-06 13:08:00,
2013-02-06 07:23:00,7.6,6.0,30.18,SW,236,0.0,1.0,94,0.00,,,0.00,weatherlink.com 1.10,2013-02-06 13:23:00,
2013-02-06 07:38:00,11.0,11.0,30.18,SW,236,0.0,1.0,99,0.00,,,0.00,weatherlink.com 1.10,2013-02-06 13:38:00,
2013-02-06 07:53:00,8.7,7.0,30.17,ENE,76,0.0,1.0,93,0.00,,,0.00,weatherlink.com 1.10,2013-02-06 13:53:00,
2013-02-06 08:08:00,10.2,9.0,30.17,West,269,0.0,1.0,94,0.00,,,0.00,weatherlink.com 1.10,2013-02-06 14:08:00,
2013-02-06 08:38:00,14.3,13.0,30.17,West,270,0.0,1.0,95,0.00,,,0.00,weatherlink.com 1.10,2013-02-06 14:38:00,
2013-02-06 08:53:00,18.5,18.0,30.18,ENE,57,0.0,2.0,98,0.00,,,0.00,weatherlink.com 1.10,2013-02-06 14:53:00,
2013-02-06 09:08:00,21.8,21.0,30.18,SSE,150,0.0,2.0,96,0.00,,,0.00,weatherlink.com 1.10,2013-02-06 15:08:00,
2013-02-06 09:23:00,23.6,21.0,30.18,SE,132,4.0,6.0,90,0.00,,,0.00,weatherlink.com 1.10,2013-02-06 15:23:00,
2013-02-06 09:38:00,24.6,21.0,30.16,ESE,103,2.0,6.0,86,0.00,,,0.00,weatherlink.com 1.10,2013-02-06 15:38:00,
2013-02-06 09:53:00,25.7,22.0,30.15,ESE,108,2.0,8.0,84,0.00,,,0.00,weatherlink.com 1.10,2013-02-06 15:53:00,
2013-02-06 10:08:00,26.8,23.0,30.16,SE,145,0.0,5.0,84,0.00,,,0.00,weatherlink.com 1.10,2013-02-06 16:08:00,
2013-02-06 10:23:00,28.9,23.0,30.17,SW,235,0.0,6.0,80,0.00,,,0.00,weatherlink.com 1.10,2013-02-06 16:23:00,
2013-02-06 10:38:00,30.2,24.0,30.17,South,174,3.0,8.0,78,0.00,,,0.00,weatherlink.com 1.10,2013-02-06 16:38:00,
2013-02-06 10:54:00,29.5,24.0,30.18,SSW,200,0.0,8.0,79,0.00,,,0.00,weatherlink.com 1.10,2013-02-06 16:54:00,
2013-02-06 11:08:00,30.4,24.0,30.17,SSE,160,1.0,6.0,77,0.00,,,0.00,weatherlink.com 1.10,2013-02-06 17:08:00,
2013-02-06 11:24:00,31.0,25.0,30.17,SE,145,0.0,8.0,78,0.00,,,0.00,weatherlink.com 1.10,2013-02-06 17:24:00,
2013-02-06 11:38:00,31.2,25.0,30.16,SSE,167,9.0,10.0,78,0.00,,,0.00,weatherlink.com 1.10,2013-02-06 17:38:00,
2013-02-06 11:53:00,31.1,25.0,30.16,SSW,200,2.0,9.0,79,0.00,,,0.00,weatherlink.com 1.10,2013-02-06 17:53:00,
2013-02-06 12:23:00,32.9,26.0,30.15,SSE,166,8.0,9.0,77,0.00,,,0.00,weatherlink.com 1.10,2013-02-06 18:23:00,
2013-02-06 12:38:00,32.7,26.0,30.14,SSE,155,2.0,9.0,77,0.00,,,0.00,weatherlink.com 1.10,2013-02-06 18:38:00,
2013-02-06 12:53:00,34.4,27.0,30.13,South,173,3.0,6.0,74,0.00,,,0.00,weatherlink.com 1.10,2013-02-06 18:53:00,
2013-02-06 13:08:00,35.0,27.0,30.12,SSW,198,4.0,8.0,72,0.00,,,0.00,weatherlink.com 1.10,2013-02-06 19:08:00,
2013-02-06 13:24:00,35.6,28.0,30.11,SSW,203,3.0,7.0,73,0.00,,,0.00,weatherlink.com 1.10,2013-02-06 19:24:00,
2013-02-06 13:38:00,35.2,28.0,30.11,SSE,156,1.0,7.0,75,0.00,,,0.00,weatherlink.com 1.10,2013-02-06 19:38:00,
2013-02-06 13:54:00,35.3,28.0,30.11,SSE,148,5.0,7.0,75,0.00,,,0.00,weatherlink.com 1.10,2013-02-06 19:54:00,
2013-02-06 14:09:00,35.9,29.0,30.11,SE,143,3.0,7.0,75,0.00,,,0.00,weatherlink.com 1.10,2013-02-06 20:09:00,
2013-02-06 14:24:00,35.8,29.0,30.11,SSE,156,0.0,4.0,76,0.00,,,0.00,weatherlink.com 1.10,2013-02-06 20:24:00,
2013-02-06 14:39:00,35.9,29.0,30.11,SSE,150,3.0,7.0,76,0.00,,,0.00,weatherlink.com 1.10,2013-02-06 20:39:00,
2013-02-06 14:54:00,35.4,29.0,30.11,SE,139,3.0,7.0,77,0.00,,,0.00,weatherlink.com 1.10,2013-02-06 20:54:00,
2013-02-06 15:09:00,35.0,29.0,30.10,SSE,152,3.0,7.0,78,0.00,,,0.00,weatherlink.com 1.10,2013-02-06 21:09:00,
2013-02-06 15:24:00,35.5,29.0,30.09,ESE,118,2.0,6.0,78,0.01,,,0.01,weatherlink.com 1.10,2013-02-06 21:24:00,
2013-02-06 15:39:00,35.2,29.0,30.08,SE,132,3.0,8.0,78,0.01,,,0.01,weatherlink.com 1.10,2013-02-06 21:39:00,
2013-02-06 15:54:00,34.7,29.0,30.07,ESE,112,7.0,11.0,80,0.01,,,0.01,weatherlink.com 1.10,2013-02-06 21:54:00,
2013-02-06 16:09:00,34.7,29.0,30.06,SSW,207,6.0,8.0,81,0.01,,,0.01,weatherlink.com 1.10,2013-02-06 22:09:00,
2013-02-06 16:24:00,34.8,30.0,30.06,East,83,3.0,10.0,83,0.00,,,0.01,weatherlink.com 1.10,2013-02-06 22:24:00,
2013-02-06 16:39:00,34.9,30.0,30.06,SE,127,0.0,7.0,83,0.00,,,0.01,weatherlink.com 1.10,2013-02-06 22:39:00,
2013-02-06 16:54:00,34.9,31.0,30.05,South,177,0.0,6.0,85,0.01,,,0.02,weatherlink.com 1.10,2013-02-06 22:54:00,
2013-02-06 17:09:00,35.0,31.0,30.04,ESE,111,0.0,5.0,86,0.01,,,0.02,weatherlink.com 1.10,2013-02-06 23:09:00,
2013-02-06 17:24:00,35.2,32.0,30.04,SE,142,1.0,5.0,87,0.01,,,0.02,weatherlink.com 1.10,2013-02-06 23:24:00,
2013-02-06 17:39:00,35.3,32.0,30.05,ESE,107,0.0,4.0,87,0.01,,,0.02,weatherlink.com 1.10,2013-02-06 23:39:00,
2013-02-06 17:54:00,35.4,32.0,30.05,ESE,105,1.0,3.0,88,0.00,,,0.02,weatherlink.com 1.10,2013-02-06 23:54:00,
2013-02-06 18:09:00,35.1,33.0,30.05,ENE,73,2.0,3.0,90,0.00,,,0.02,weatherlink.com 1.10,2013-02-07 00:09:00,
2013-02-06 18:24:00,35.4,33.0,30.05,SSE,148,0.0,5.0,90,0.00,,,0.02,weatherlink.com 1.10,2013-02-07 00:24:00,
2013-02-06 18:39:00,35.5,33.0,30.04,SE,135,1.0,5.0,90,0.00,,,0.02,weatherlink.com 1.10,2013-02-07 00:39:00,
2013-02-06 18:54:00,35.7,33.0,30.05,ESE,117,1.0,4.0,90,0.00,,,0.02,weatherlink.com 1.10,2013-02-07 00:54:00,
2013-02-06 19:09:00,36.0,33.0,30.05,ESE,121,2.0,4.0,90,0.00,,,0.02,weatherlink.com 1.10,2013-02-07 01:09:00,
2013-02-06 19:24:00,36.2,34.0,30.05,East,97,4.0,5.0,90,0.00,,,0.02,weatherlink.com 1.10,2013-02-07 01:24:00,
2013-02-06 19:39:00,36.6,34.0,30.04,SSE,153,5.0,8.0,90,0.00,,,0.02,weatherlink.com 1.10,2013-02-07 01:39:00,
2013-02-06 19:54:00,37.0,34.0,30.02,SE,127,2.0,9.0,89,0.01,,,0.03,weatherlink.com 1.10,2013-02-07 01:54:00,
2013-02-06 20:09:00,37.0,34.0,30.02,SE,134,2.0,6.0,89,0.01,,,0.03,weatherlink.com 1.10,2013-02-07 02:09:00,
2013-02-06 20:24:00,36.8,34.0,30.01,SSW,195,4.0,9.0,89,0.01,,,0.03,weatherlink.com 1.10,2013-02-07 02:24:00,
2013-02-06 20:39:00,37.0,34.0,30.01,ESE,116,5.0,12.0,88,0.01,,,0.03,weatherlink.com 1.10,2013-02-07 02:39:00,
2013-02-06 20:54:00,37.1,34.0,30.01,SE,131,3.0,8.0,88,0.01,,,0.04,weatherlink.com 1.10,2013-02-07 02:54:00,
2013-02-06 21:09:00,37.5,34.0,30.01,South,174,3.0,14.0,87,0.01,,,0.04,weatherlink.com 1.10,2013-02-07 03:09:00,
2013-02-06 21:24:00,37.6,34.0,30.02,SSE,150,1.0,8.0,87,0.01,,,0.04,weatherlink.com 1.10,2013-02-07 03:24:00,
2013-02-06 21:39:00,37.4,34.0,30.01,SSW,203,0.0,7.0,87,0.02,,,0.05,weatherlink.com 1.10,2013-02-07 03:39:00,
2013-02-06 21:55:00,37.3,34.0,30.02,SE,138,3.0,7.0,88,0.01,,,0.05,weatherlink.com 1.10,2013-02-07 03:55:00,
2013-02-06 22:10:00,37.4,34.0,30.02,SE,138,1.0,7.0,88,0.01,,,0.05,weatherlink.com 1.10,2013-02-07 04:10:00,
2013-02-06 22:24:00,37.5,34.0,30.02,SE,142,2.0,7.0,88,0.01,,,0.05,weatherlink.com 1.10,2013-02-07 04:24:00,
2013-02-06 22:39:00,37.4,34.0,30.02,South,181,4.0,10.0,88,0.01,,,0.06,weatherlink.com 1.10,2013-02-07 04:39:00,
2013-02-06 22:55:00,37.3,34.0,30.01,South,170,4.0,9.0,88,0.01,,,0.06,weatherlink.com 1.10,2013-02-07 04:55:00,
2013-02-06 23:09:00,37.3,34.0,30.01,South,172,2.0,9.0,88,0.01,,,0.06,weatherlink.com 1.10,2013-02-07 05:09:00,
2013-02-06 23:24:00,37.2,34.0,30.01,SW,224,1.0,7.0,89,0.01,,,0.06,weatherlink.com 1.10,2013-02-07 05:24:00,
2013-02-06 23:40:00,37.0,34.0,30.02,South,189,0.0,5.0,89,0.00,,,0.06,weatherlink.com 1.10,2013-02-07 05:40:00,
2013-02-06 23:54:00,36.7,34.0,30.01,SE,146,7.0,11.0,90,0.01,,,0.07,weatherlink.com 1.10,2013-02-07 05:54:00,